Time;durP1;ratioP1;P1;durP2;ratioP2;P2;SDS_P1;SDS_P2;PMS_P1;PMS_P2;Temp;Humidity;BMP_temperature;BMP_pressure;BME280_temperature;BME280_humidity;BME280_pressure;Samples;Min_cycle;Max_cycle;Signal;HPM_P1;HPM_P2
2022/12/06 00:01:41;;;;;;;5.43;2.13;;;;;;;-7.29;59.81;101260.78;5004940;28;20046;-54
2022/12/06 00:04:12;;;;;;;2.92;1.48;;;;;;;-7.30;59.75;101261.56;4989994;28;20038;-51
2022/12/06 00:06:46;;;;;;;5.13;2.35;;;;;;;-7.35;59.77;101258.75;4977673;28;20086;-47
2022/12/06 00:09:22;;;;;;;3.00;1.65;;;;;;;-7.39;60.04;101263.53;4971711;28;20049;-49
2022/12/06 00:11:49;;;;;;;4.53;1.75;;;;;;;-7.47;59.89;101264.69;4977737;28;20185;-50
2022/12/06 00:14:16;;;;;;;3.28;1.55;;;;;;;-7.50;60.03;101251.88;4987637;28;20051;-50
2022/12/06 00:16:42;;;;;;;7.45;0.63;;;;;;;-7.71;60.52;101219.47;4994109;28;20038;-49
2022/12/06 00:19:09;;;;;;;2.25;1.05;;;;;;;-7.53;60.36;101250.03;4989829;28;20061;-47
2022/12/06 00:21:36;;;;;;;1.65;0.93;;;;;;;-7.57;59.89;101235.47;4965692;28;20042;-49
2022/12/06 00:24:10;;;;;;;7.63;2.28;;;;;;;-7.53;60.58;101234.88;4988432;28;20101;-51
2022/12/06 00:26:42;;;;;;;1.98;1.38;;;;;;;-7.49;60.11;101221.69;4977850;28;20543;-52
2022/12/06 00:29:11;;;;;;;4.80;2.05;;;;;;;-7.47;60.12;101230.22;4982802;28;20572;-48
2022/12/06 00:31:37;;;;;;;4.28;2.08;;;;;;;-7.38;60.30;101233.28;4991070;28;20046;-54
2022/12/06 00:34:04;;;;;;;2.90;0.80;;;;;;;-7.28;59.72;101229.72;5004867;28;20104;-50
2022/12/06 00:36:32;;;;;;;6.13;2.00;;;;;;;-7.32;60.16;101225.22;4988873;28;20046;-51
2022/12/06 00:38:59;;;;;;;7.53;2.33;;;;;;;-7.35;59.94;101225.03;4979421;28;20050;-50
2022/12/06 00:41:26;;;;;;;6.07;1.70;;;;;;;-7.40;59.92;101216.31;4976204;28;20031;-48
2022/12/06 00:43:53;;;;;;;4.78;1.60;;;;;;;-7.35;59.88;101215.81;4994261;28;20437;-52
2022/12/06 00:46:21;;;;;;;4.05;1.90;;;;;;;-7.33;60.24;101210.88;4987114;28;20054;-52
2022/12/06 00:48:48;;;;;;;8.05;2.00;;;;;;;-7.32;59.83;101217.66;4985702;28;20046;-52
2022/12/06 00:51:15;;;;;;;4.07;1.67;;;;;;;-7.33;59.88;101211.72;4987744;28;20042;-49
2022/12/06 00:53:42;;;;;;;8.00;2.10;;;;;;;-7.37;59.75;101197.16;4975758;28;20054;-51
2022/12/06 00:56:08;;;;;;;3.47;1.70;;;;;;;-7.36;59.59;101200.56;4975276;28;20070;-50
2022/12/06 00:58:34;;;;;;;3.05;1.58;;;;;;;-7.37;60.11;101198.81;4981473;28;20136;-50
2022/12/06 01:01:27;;;;;;;4.97;2.38;;;;;;;-7.34;59.78;101191.44;4971601;28;20039;-50
2022/12/06 01:03:56;;;;;;;4.78;1.73;;;;;;;-7.30;59.88;101186.66;4978757;28;20549;-48
2022/12/06 01:06:26;;;;;;;3.87;2.00;;;;;;;-7.24;59.70;101186.16;4971329;28;20400;-48
2022/12/06 01:08:57;;;;;;;4.10;2.20;;;;;;;-7.22;59.41;101193.84;4992874;28;20308;-52
2022/12/06 01:11:24;;;;;;;4.68;1.65;;;;;;;-7.40;59.66;101158.22;4972743;28;20436;-51
2022/12/06 01:13:50;;;;;;;3.45;1.80;;;;;;;-7.30;59.41;101183.25;4989145;28;20121;-50
2022/12/06 01:16:20;;;;;;;6.72;2.17;;;;;;;-7.34;59.84;101179.69;4982022;28;20046;-53
2022/12/06 01:18:46;;;;;;;5.05;1.73;;;;;;;-7.16;59.78;101184.94;4969996;28;20038;-53
2022/12/06 01:21:17;;;;;;;5.90;2.00;;;;;;;-7.08;58.95;101180.38;4971157;28;20073;-47
2022/12/06 01:23:44;;;;;;;5.25;2.20;;;;;;;-7.15;59.47;101178.25;4986172;28;20546;-48
2022/12/06 01:26:24;;;;;;;2.00;0.85;;;;;;;-7.24;59.97;101178.56;4992413;28;20507;-50
2022/12/06 01:28:50;;;;;;;4.47;2.20;;;;;;;-7.28;59.92;101166.53;4986247;28;20050;-48
2022/12/06 01:31:16;;;;;;;3.47;1.80;;;;;;;-7.29;58.99;101178.31;4985983;28;20043;-50
2022/12/06 01:33:42;;;;;;;5.55;2.08;;;;;;;-7.49;59.19;101142.53;4970899;28;20129;-49
2022/12/06 01:36:15;;;;;;;4.13;1.55;;;;;;;-7.32;59.74;101178.09;4981596;28;20180;-49
2022/12/06 01:38:40;;;;;;;3.88;1.92;;;;;;;-7.46;59.62;101156.19;4987032;28;20144;-49
2022/12/06 01:41:06;;;;;;;1.48;0.85;;;;;;;-7.40;59.48;101161.63;5005239;28;20031;-49
2022/12/06 01:43:34;;;;;;;3.75;1.73;;;;;;;-7.40;59.99;101166.66;4986455;28;20050;-51
2022/12/06 01:46:25;;;;;;;4.63;2.33;;;;;;;-7.36;60.10;101161.03;4979820;28;20046;-49
2022/12/06 01:48:55;;;;;;;7.10;2.53;;;;;;;-7.36;59.83;101172.78;5001511;28;20109;-51
2022/12/06 01:51:21;;;;;;;4.95;1.95;;;;;;;-7.36;59.96;101168.59;4985905;28;20042;-51
2022/12/06 01:53:48;;;;;;;2.13;1.42;;;;;;;-7.35;59.94;101170.34;4944973;28;20127;-47
2022/12/06 01:56:14;;;;;;;3.90;2.00;;;;;;;-7.39;59.88;101159.97;4985314;28;20073;-51
2022/12/06 01:58:40;;;;;;;4.47;1.83;;;;;;;-7.44;59.74;101158.81;4988337;28;20105;-48
2022/12/06 02:01:09;;;;;;;5.18;2.25;;;;;;;-7.47;59.98;101146.00;4972511;28;20396;-50
2022/12/06 02:03:35;;;;;;;4.35;1.88;;;;;;;-7.44;59.88;101147.06;4976123;28;20077;-51
2022/12/06 02:06:06;;;;;;;5.10;2.45;;;;;;;-7.46;60.04;101137.63;4988378;28;20529;-54
2022/12/06 02:08:32;;;;;;;6.70;2.22;;;;;;;-7.41;60.44;101138.78;4987797;28;20536;-50
2022/12/06 02:11:00;;;;;;;3.38;1.02;;;;;;;-7.44;59.90;101136.97;4985995;28;20043;-52
2022/12/06 02:13:27;;;;;;;3.08;1.40;;;;;;;-7.43;60.08;101145.41;4982793;28;20050;-53
2022/12/06 02:16:12;;;;;;;3.60;1.55;;;;;;;-7.36;60.08;101135.75;5002028;28;20049;-48
2022/12/06 02:18:54;;;;;;;6.20;2.05;;;;;;;-7.40;59.91;101136.38;4977995;28;20064;-51
2022/12/06 02:21:24;;;;;;;5.43;1.92;;;;;;;-7.33;59.77;101157.81;4971018;28;20038;-51
2022/12/06 02:24:26;;;;;;;4.53;1.90;;;;;;;-7.42;60.11;101142.97;4953448;28;20057;-48
2022/12/06 02:27:03;;;;;;;4.53;1.85;;;;;;;-7.39;60.14;101147.34;4984172;28;20137;-51
2022/12/06 02:29:44;;;;;;;1.83;1.05;;;;;;;-7.36;59.92;101134.88;4995822;28;20507;-52
2022/12/06 02:32:33;;;;;;;5.95;2.40;;;;;;;-7.39;59.85;101138.13;4970334;28;20035;-52
2022/12/06 02:35:14;;;;;;;3.33;0.60;;;;;;;-7.49;59.70;101128.25;4986002;28;20124;-49
2022/12/06 02:37:52;;;;;;;2.28;1.27;;;;;;;-7.53;60.48;101108.59;4987292;28;20046;-50
2022/12/06 02:40:26;;;;;;;5.72;1.90;;;;;;;-7.56;59.96;101103.38;4984290;28;20407;-51
2022/12/06 02:42:53;;;;;;;2.58;1.42;;;;;;;-7.50;60.40;101107.94;4982538;28;20511;-49
2022/12/06 02:45:23;;;;;;;5.15;1.63;;;;;;;-7.49;60.32;101105.50;5000602;28;20039;-52
2022/12/06 02:47:50;;;;;;;3.70;1.50;;;;;;;-7.48;60.34;101094.59;4968940;28;20461;-49
2022/12/06 02:50:19;;;;;;;5.32;1.88;;;;;;;-7.44;60.14;101105.78;4978805;28;20049;-48
2022/12/06 02:52:47;;;;;;;6.53;2.50;;;;;;;-7.39;60.12;101105.28;4987318;28;20073;-48
2022/12/06 02:55:14;;;;;;;5.63;2.38;;;;;;;-7.33;60.03;101108.13;4984234;28;20050;-47
2022/12/06 02:57:43;;;;;;;4.60;1.92;;;;;;;-7.32;60.00;101116.59;4978297;28;20049;-52
2022/12/06 03:00:34;;;;;;;3.40;1.73;;;;;;;-7.33;60.29;101107.31;4970953;28;20065;-52
2022/12/06 03:03:15;;;;;;;4.35;1.55;;;;;;;-7.32;60.32;101102.31;4971401;28;20074;-52
2022/12/06 03:06:02;;;;;;;3.38;1.75;;;;;;;-7.51;60.07;101081.81;4986873;28;20130;-49
2022/12/06 03:08:42;;;;;;;4.68;2.10;;;;;;;-7.35;59.90;101107.19;4983517;28;20498;-52
2022/12/06 03:11:08;;;;;;;2.25;1.10;;;;;;;-7.70;59.69;101058.78;4991758;28;20542;-47
2022/12/06 03:14:02;;;;;;;5.03;2.15;;;;;;;-7.42;59.89;101115.19;4987722;28;20065;-47
2022/12/06 03:16:33;;;;;;;6.20;1.42;;;;;;;-7.39;60.11;101114.50;4993087;28;20068;-49
2022/12/06 03:19:20;;;;;;;3.72;1.50;;;;;;;-7.48;60.41;101109.75;4991920;28;20042;-47
2022/12/06 03:22:26;;;;;;;4.80;2.40;;;;;;;-7.45;60.61;101109.97;4975144;28;20422;-50
2022/12/06 03:24:53;;;;;;;3.15;1.23;;;;;;;-7.59;60.15;101083.03;4934394;29;20512;-49
2022/12/06 03:27:19;;;;;;;5.00;2.00;;;;;;;-7.36;60.21;101107.97;4988998;28;20046;-50
2022/12/06 03:29:50;;;;;;;6.05;2.42;;;;;;;-7.36;60.21;101110.50;5002230;28;20053;-51
2022/12/06 03:32:17;;;;;;;4.85;1.77;;;;;;;-7.38;60.11;101107.00;4992428;28;20499;-49
2022/12/06 03:34:46;;;;;;;4.57;1.88;;;;;;;-7.46;60.04;101108.22;4990907;28;20069;-49
2022/12/06 03:37:17;;;;;;;3.05;1.92;;;;;;;-7.51;60.32;101096.09;4975979;28;20039;-49
2022/12/06 03:39:51;;;;;;;4.00;1.92;;;;;;;-7.87;60.20;101030.00;4982802;28;20552;-49
2022/12/06 03:42:18;;;;;;;9.38;2.55;;;;;;;-7.49;60.19;101082.78;4977635;28;20042;-50
2022/12/06 03:44:44;;;;;;;5.72;2.25;;;;;;;-7.52;60.39;101084.22;4985665;28;20105;-49
2022/12/06 03:47:14;;;;;;;4.85;2.08;;;;;;;-7.57;60.10;101093.19;4986566;28;21437;-50
2022/12/06 03:50:02;;;;;;;10.30;2.95;;;;;;;-7.67;60.63;101075.75;4974146;28;20082;-50
2022/12/06 03:52:29;;;;;;;2.75;1.58;;;;;;;-7.71;60.92;101080.63;4988831;28;20034;-48
2022/12/06 03:54:55;;;;;;;5.55;1.95;;;;;;;-7.75;60.83;101072.78;4986046;28;20070;-53
2022/12/06 03:57:20;;;;;;;3.80;1.88;;;;;;;-7.78;61.02;101072.56;4989726;28;20096;-53
2022/12/06 03:59:46;;;;;;;3.50;1.15;;;;;;;-7.88;60.90;101072.78;4967920;28;20035;-49
2022/12/06 04:02:12;;;;;;;8.90;2.88;;;;;;;-8.03;61.42;101049.16;4976686;28;20042;-49
2022/12/06 04:04:39;;;;;;;5.55;2.22;;;;;;;-8.12;61.46;101041.91;4988641;28;20058;-51
2022/12/06 04:07:05;;;;;;;5.57;2.40;;;;;;;-8.00;61.26;101067.84;4986337;28;20049;-49
2022/12/06 04:15:00;;;;;;;2.97;1.00;;;;;;;-8.09;61.51;101072.34;4981964;28;20608;-52
2022/12/06 04:20:11;;;;;;;3.35;1.65;;;;;;;-8.12;61.81;101064.59;4990995;28;20034;-51
2022/12/06 04:25:21;;;;;;;5.07;2.13;;;;;;;-8.15;62.01;101055.19;4980482;28;20054;-52
2022/12/06 04:38:45;;;;;;;6.07;2.78;;;;;;;-8.16;61.77;101053.44;4989153;28;20430;-48
2022/12/06 04:43:40;;;;;;;7.50;2.53;;;;;;;-8.16;62.10;101053.44;4990069;28;20034;-54
2022/12/06 04:43:57;;;;;;;6.90;2.58;;;;;;;-8.15;62.21;101044.22;4978507;28;20046;-51
2022/12/06 04:46:23;;;;;;;4.72;2.25;;;;;;;-8.15;62.14;101050.13;4989514;28;20093;-50
2022/12/06 04:48:49;;;;;;;1.80;1.50;;;;;;;-8.15;62.69;101056.81;5006275;28;20469;-53
2022/12/06 04:51:15;;;;;;;2.08;1.17;;;;;;;-8.31;62.52;101014.69;4989787;28;20046;-50
2022/12/06 04:53:41;;;;;;;6.20;2.33;;;;;;;-8.06;62.71;101049.84;4990845;28;20062;-51
2022/12/06 04:56:07;;;;;;;3.45;2.10;;;;;;;-8.06;62.03;101059.06;4990104;28;20046;-55
2022/12/06 04:58:33;;;;;;;2.50;1.63;;;;;;;-8.06;62.35;101052.38;4989921;28;20046;-48
2022/12/06 05:00:59;;;;;;;5.95;1.90;;;;;;;-8.01;62.21;101051.00;4984700;28;20066;-50
2022/12/06 05:03:25;;;;;;;4.88;2.33;;;;;;;-8.00;61.99;101049.31;4982777;28;20077;-47
2022/12/06 05:05:51;;;;;;;4.68;2.47;;;;;;;-7.96;62.09;101046.22;4987263;28;20101;-50
2022/12/06 05:08:17;;;;;;;3.47;1.63;;;;;;;-7.94;61.68;101049.69;4987810;28;20100;-50
2022/12/06 05:10:47;;;;;;;3.92;1.90;;;;;;;-7.88;61.93;101045.03;4965198;28;20046;-51
2022/12/06 05:13:14;;;;;;;7.38;2.90;;;;;;;-7.89;61.56;101051.72;4993381;28;20050;-49
2022/12/06 05:15:52;;;;;;;3.33;1.13;;;;;;;-7.93;61.20;101039.72;4980464;28;20108;-51
2022/12/06 05:18:18;;;;;;;7.28;2.28;;;;;;;-7.90;61.19;101047.44;5003380;28;20042;-55
2022/12/06 05:20:44;;;;;;;6.00;2.70;;;;;;;-7.85;61.26;101042.72;4972177;28;20529;-56
2022/12/06 05:23:10;;;;;;;5.40;1.98;;;;;;;-7.77;61.17;101047.44;4954286;28;20054;-50
2022/12/06 05:25:36;;;;;;;6.78;2.70;;;;;;;-7.88;61.13;101038.34;4984483;28;20083;-51
2022/12/06 05:28:02;;;;;;;4.10;2.30;;;;;;;-7.81;61.25;101053.09;4977611;28;20043;-50
2022/12/06 05:30:28;;;;;;;9.13;2.70;;;;;;;-8.02;61.28;101024.03;4972310;28;20052;-52
2022/12/06 05:32:54;;;;;;;3.33;1.70;;;;;;;-7.92;61.41;101038.94;4986788;28;20038;-49
2022/12/06 05:35:20;;;;;;;6.15;2.20;;;;;;;-7.93;61.69;101046.41;4991518;28;20473;-52
2022/12/06 05:37:46;;;;;;;7.70;2.40;;;;;;;-7.95;61.51;101048.81;4986818;28;20152;-47
2022/12/06 05:40:12;;;;;;;6.85;1.77;;;;;;;-7.90;61.48;101037.34;4984387;28;20060;-51
2022/12/06 05:42:41;;;;;;;7.32;2.85;;;;;;;-7.90;61.44;101031.47;4988523;28;20502;-52
2022/12/06 05:45:08;;;;;;;6.13;2.35;;;;;;;-7.83;61.28;101046.19;4990516;28;20111;-56
2022/12/06 05:47:34;;;;;;;12.10;2.55;;;;;;;-7.82;61.73;101035.31;4970654;28;20046;-52
2022/12/06 05:50:01;;;;;;;4.82;2.15;;;;;;;-7.86;61.41;101030.88;4990172;28;20411;-48
2022/12/06 05:52:26;;;;;;;2.85;1.33;;;;;;;-7.97;61.26;101017.59;4984687;28;20034;-49
2022/12/06 05:54:52;;;;;;;6.05;2.33;;;;;;;-7.87;61.71;101024.94;4979162;28;20534;-56
2022/12/06 05:57:18;;;;;;;3.63;2.13;;;;;;;-7.76;61.17;101035.69;4982526;28;20129;-52
2022/12/06 05:59:44;;;;;;;5.25;2.22;;;;;;;-7.78;61.20;101022.09;4976167;28;20105;-52
2022/12/06 06:02:10;;;;;;;6.75;2.60;;;;;;;-7.72;61.22;101019.94;4985563;28;20133;-50
2022/12/06 06:04:36;;;;;;;4.88;2.20;;;;;;;-7.92;60.98;100998.56;4976238;28;20054;-54
2022/12/06 06:07:01;;;;;;;4.63;2.10;;;;;;;-7.75;60.86;101032.38;4989673;28;20049;-51
2022/12/06 06:09:27;;;;;;;4.93;1.83;;;;;;;-7.98;61.21;100974.59;4988871;28;20046;-51
2022/12/06 06:11:54;;;;;;;5.70;2.50;;;;;;;-7.71;60.93;101014.09;4988097;28;20407;-51
2022/12/06 06:14:21;;;;;;;6.80;3.00;;;;;;;-7.82;61.19;100973.09;4989107;28;20194;-54
2022/12/06 06:16:46;;;;;;;7.70;2.92;;;;;;;-7.55;60.65;101005.78;4989668;28;20053;-51
2022/12/06 06:19:12;;;;;;;4.35;1.75;;;;;;;-7.47;60.47;101020.59;4989568;28;20458;-53
2022/12/06 06:21:39;;;;;;;5.40;2.38;;;;;;;-7.60;60.63;101004.66;4988352;28;20459;-50
2022/12/06 06:24:05;;;;;;;6.28;3.42;;;;;;;-7.56;60.80;101014.13;4987896;28;20091;-54
2022/12/06 06:26:30;;;;;;;8.18;2.50;;;;;;;-7.48;60.50;101008.75;4988111;28;20050;-55
2022/12/06 06:28:56;;;;;;;3.65;2.40;;;;;;;-7.73;60.04;100961.00;4988098;28;20502;-50
2022/12/06 06:31:22;;;;;;;7.35;2.78;;;;;;;-7.45;60.53;101000.50;4988141;28;20545;-55
2022/12/06 06:33:48;;;;;;;13.52;3.35;;;;;;;-7.39;60.56;101006.78;4992475;28;20403;-55
2022/12/06 06:36:14;;;;;;;7.93;3.08;;;;;;;-7.34;60.06;100986.81;4993302;28;20128;-53
2022/12/06 06:38:40;;;;;;;6.35;2.97;;;;;;;-7.06;59.61;101017.03;4993674;28;20584;-55
2022/12/06 06:41:07;;;;;;;5.38;2.63;;;;;;;-7.05;59.99;101019.66;4993363;28;20045;-56
2022/12/06 06:43:32;;;;;;;8.00;3.22;;;;;;;-7.23;59.82;100982.41;4992208;28;20042;-52
2022/12/06 06:46:05;;;;;;;11.07;2.95;;;;;;;-7.00;59.44;101015.75;4993215;28;20042;-50
2022/12/06 06:48:34;;;;;;;6.57;2.83;;;;;;;-6.87;59.47;101009.75;4993284;28;20038;-50
2022/12/06 06:51:07;;;;;;;5.95;2.63;;;;;;;-6.65;59.29;101024.44;4992792;28;20057;-54
2022/12/06 06:53:33;;;;;;;5.75;2.72;;;;;;;-6.65;58.83;101020.28;4991945;28;20046;-50
2022/12/06 06:55:59;;;;;;;6.55;2.72;;;;;;;-6.70;58.75;101020.81;4992432;28;20056;-51
2022/12/06 06:58:25;;;;;;;4.82;2.13;;;;;;;-6.68;58.79;101021.72;4993282;28;20124;-53
2022/12/06 07:00:55;;;;;;;11.52;3.30;;;;;;;-6.75;58.74;101014.63;4981581;28;20046;-54
2022/12/06 07:03:22;;;;;;;4.80;2.25;;;;;;;-6.71;58.77;101019.94;4973878;28;20084;-56
2022/12/06 07:06:06;;;;;;;4.78;2.83;;;;;;;-6.66;58.64;101021.06;4998036;28;20498;-52
2022/12/06 07:08:32;;;;;;;9.77;3.33;;;;;;;-6.49;58.30;101025.34;4992859;28;20050;-54
2022/12/06 07:10:58;;;;;;;5.93;2.67;;;;;;;-6.46;58.17;101015.44;4991805;28;20576;-55
2022/12/06 07:13:25;;;;;;;4.00;1.88;;;;;;;-6.48;57.96;101021.16;4993373;28;20060;-53
2022/12/06 07:15:51;;;;;;;8.20;3.05;;;;;;;-6.53;57.83;101020.06;4991825;28;20053;-50
2022/12/06 07:18:18;;;;;;;6.35;2.90;;;;;;;-6.41;57.92;101013.13;4974809;28;20522;-52
2022/12/06 07:20:44;;;;;;;9.48;3.58;;;;;;;-6.63;57.76;100959.63;4992862;28;20042;-52
2022/12/06 07:23:10;;;;;;;7.60;3.40;;;;;;;-6.40;57.84;100983.66;4991029;28;20050;-56
2022/12/06 07:25:36;;;;;;;7.70;2.95;;;;;;;-6.20;57.01;101013.44;4988916;28;20050;-52
2022/12/06 07:28:03;;;;;;;7.47;2.65;;;;;;;-6.24;57.51;101003.94;4976745;28;20070;-51
2022/12/06 07:30:29;;;;;;;7.80;3.22;;;;;;;-6.14;57.32;101009.56;4990738;28;20532;-55
2022/12/06 07:32:55;;;;;;;11.32;3.45;;;;;;;-5.73;56.75;101009.16;4992413;28;20035;-54
2022/12/06 07:35:21;;;;;;;4.07;1.92;;;;;;;-5.48;55.96;101012.94;4991235;28;20069;-50
2022/12/06 07:37:47;;;;;;;5.25;2.38;;;;;;;-5.18;55.96;101019.56;4990969;28;20128;-51
2022/12/06 07:40:14;;;;;;;11.23;3.90;;;;;;;-4.82;54.87;101013.78;4992096;28;20076;-57
2022/12/06 07:45:24;;;;;;;6.38;3.05;;;;;;;-4.03;53.26;101003.91;4991134;28;20138;-54
2022/12/06 07:47:50;;;;;;;7.93;3.25;;;;;;;-3.48;52.60;101012.28;5006771;28;20136;-52
2022/12/06 07:50:19;;;;;;;6.70;3.15;;;;;;;-3.08;52.10;101015.69;4992286;28;20506;-54
2022/12/06 07:52:47;;;;;;;11.68;3.33;;;;;;;-2.66;50.72;101011.47;4990937;28;20078;-52
2022/12/06 07:55:14;;;;;;;8.15;3.40;;;;;;;-2.38;49.80;101002.38;4991250;28;20073;-54
2022/12/06 07:57:40;;;;;;;5.03;3.03;;;;;;;-2.33;49.53;101011.94;4990884;28;20129;-51
2022/12/06 08:00:08;;;;;;;7.50;2.67;;;;;;;-2.10;49.16;101010.28;4991947;28;20570;-51
2022/12/06 08:02:40;;;;;;;3.83;1.80;;;;;;;-2.20;48.91;101010.75;4971611;28;20471;-53
2022/12/06 08:05:06;;;;;;;8.45;4.10;;;;;;;-2.38;48.78;101005.78;4971309;28;20122;-51
2022/12/06 08:07:32;;;;;;;12.18;3.20;;;;;;;-2.15;48.17;101004.97;4972550;28;20047;-57
2022/12/06 08:09:58;;;;;;;11.05;4.28;;;;;;;-1.88;48.02;101007.69;4990559;28;20473;-51
2022/12/06 08:12:23;;;;;;;8.48;3.47;;;;;;;-1.61;47.24;101002.72;4990461;28;20050;-52
2022/12/06 08:14:49;;;;;;;11.15;3.50;;;;;;;-1.78;47.43;100968.13;4990535;28;20101;-51
2022/12/06 08:17:15;;;;;;;13.70;4.32;;;;;;;-1.74;47.20;100991.22;4991793;28;20645;-54
2022/12/06 08:19:41;;;;;;;8.05;3.58;;;;;;;-1.35;46.74;100983.22;4990812;28;20408;-52
2022/12/06 08:22:07;;;;;;;8.70;3.92;;;;;;;-1.20;46.17;100991.38;5005483;28;20506;-53
2022/12/06 08:24:33;;;;;;;6.50;3.50;;;;;;;-0.53;45.11;100980.81;4989771;28;20034;-52
2022/12/06 08:26:59;;;;;;;7.43;3.70;;;;;;;-0.17;44.58;100981.06;5003393;28;20089;-51
2022/12/06 08:29:26;;;;;;;8.02;3.88;;;;;;;-0.25;44.24;100970.59;4995105;28;20061;-53
2022/12/06 08:31:51;;;;;;;7.30;3.67;;;;;;;-0.69;44.43;100964.16;4989948;28;20121;-51
2022/12/06 08:34:17;;;;;;;8.73;3.55;;;;;;;-0.76;44.55;100962.22;4990025;28;20133;-55
2022/12/06 08:36:43;;;;;;;7.70;3.70;;;;;;;-0.17;44.25;100956.38;4991225;28;20037;-57
2022/12/06 08:39:11;;;;;;;8.38;3.55;;;;;;;0.37;42.89;100935.69;4989269;28;20044;-48
2022/12/06 08:41:56;;;;;;;10.65;4.40;;;;;;;-0.10;42.28;100957.41;4990108;28;20136;-51
2022/12/06 08:44:24;;;;;;;6.97;3.58;;;;;;;-0.23;42.43;100960.44;4991318;28;20790;-50
2022/12/06 08:46:51;;;;;;;7.80;3.95;;;;;;;-0.03;42.17;100937.19;4989939;28;20049;-53
2022/12/06 08:49:17;;;;;;;7.95;3.50;;;;;;;0.08;41.84;100921.28;4963132;28;20593;-53
2022/12/06 08:51:44;;;;;;;10.05;4.05;;;;;;;0.26;41.85;100945.66;4989513;28;20038;-53
2022/12/06 08:54:12;;;;;;;8.35;4.03;;;;;;;0.66;41.26;100949.28;4990677;28;20061;-54
2022/12/06 08:56:38;;;;;;;8.73;3.97;;;;;;;1.37;40.66;100945.88;4988785;28;20052;-53
2022/12/06 08:59:04;;;;;;;11.60;4.10;;;;;;;1.02;39.92;100916.03;4991271;28;20363;-53
2022/12/06 09:01:31;;;;;;;12.70;3.42;;;;;;;0.73;40.32;100939.22;4989745;28;20045;-52
2022/12/06 09:03:58;;;;;;;9.02;3.40;;;;;;;0.39;40.63;100937.50;4990634;28;20061;-54
2022/12/06 09:06:24;;;;;;;9.73;3.92;;;;;;;0.00;40.49;100934.69;4991147;28;20053;-56
2022/12/06 09:08:50;;;;;;;10.13;3.53;;;;;;;0.09;41.01;100916.22;4989938;28;20054;-54
2022/12/06 09:11:17;;;;;;;9.13;3.78;;;;;;;0.59;39.52;100932.88;4989321;28;20050;-52
2022/12/06 09:13:43;;;;;;;6.93;3.20;;;;;;;0.91;39.26;100927.72;4989518;28;20208;-51
2022/12/06 09:16:11;;;;;;;8.82;3.38;;;;;;;1.05;38.93;100932.31;4990374;28;20137;-53
2022/12/06 09:18:37;;;;;;;11.45;4.55;;;;;;;1.23;38.54;100935.34;4990481;28;20074;-53
2022/12/06 09:21:07;;;;;;;12.68;4.55;;;;;;;2.21;38.15;100919.44;4990798;28;20535;-54
2022/12/06 09:23:34;;;;;;;9.07;3.60;;;;;;;2.32;36.81;100925.66;4989240;28;20581;-52
2022/12/06 09:26:01;;;;;;;8.43;3.88;;;;;;;1.95;37.78;100916.38;4990515;28;20518;-52
2022/12/06 09:28:28;;;;;;;9.02;4.30;;;;;;;2.66;37.37;100899.78;4977434;28;20578;-51
2022/12/06 09:30:54;;;;;;;9.48;3.67;;;;;;;2.88;36.35;100901.81;4990824;28;20046;-49
2022/12/06 09:33:21;;;;;;;10.48;4.03;;;;;;;3.00;35.91;100901.16;4990258;28;20038;-53
2022/12/06 09:35:50;;;;;;;10.23;4.35;;;;;;;2.78;36.15;100906.78;5005959;28;20050;-54
2022/12/06 09:38:17;;;;;;;9.83;3.97;;;;;;;2.92;35.93;100903.63;4990334;28;20038;-54
2022/12/06 09:40:50;;;;;;;13.40;4.20;;;;;;;2.45;35.80;100897.69;4988833;28;20045;-53
2022/12/06 09:43:27;;;;;;;9.70;2.88;;;;;;;1.54;36.60;100895.88;4972901;28;20458;-54
2022/12/06 09:46:04;;;;;;;8.95;3.53;;;;;;;0.10;38.00;100876.19;4990208;28;20042;-56
2022/12/06 09:48:41;;;;;;;6.25;3.65;;;;;;;-0.60;38.77;100894.63;4990122;28;20162;-53
2022/12/06 09:51:13;;;;;;;9.10;3.40;;;;;;;-1.30;39.84;100903.47;4988742;28;20469;-52
2022/12/06 09:53:49;;;;;;;10.93;3.33;;;;;;;-2.02;40.67;100868.72;4990016;28;20058;-53
2022/12/06 09:56:19;;;;;;;11.07;3.97;;;;;;;-2.01;41.22;100885.75;4990019;28;20042;-52
2022/12/06 09:59:23;;;;;;;6.82;3.83;;;;;;;-2.22;41.83;100890.94;4988746;28;20617;-53
2022/12/06 10:02:07;;;;;;;8.02;3.10;;;;;;;-2.51;41.93;100895.81;4989978;28;20537;-51
2022/12/06 10:04:41;;;;;;;11.18;3.85;;;;;;;-2.80;42.51;100889.59;4990208;28;20041;-52
2022/12/06 10:07:18;;;;;;;8.85;3.65;;;;;;;-2.84;42.84;100888.63;4990284;28;20057;-51
2022/12/06 10:09:53;;;;;;;8.43;3.20;;;;;;;-2.86;42.66;100886.81;4988712;28;20077;-54
2022/12/06 10:12:33;;;;;;;8.85;3.50;;;;;;;-3.08;42.76;100880.88;4972455;28;20519;-53
2022/12/06 10:15:02;;;;;;;;;;;;;;;-3.09;43.02;100884.22;4972712;28;20450;-54
2022/12/06 10:17:42;;;;;;;6.20;3.03;;;;;;;-3.20;43.17;100871.91;4989747;28;20404;-51
2022/12/06 10:20:28;;;;;;;8.02;2.95;;;;;;;-3.03;43.02;100865.78;4989519;28;20454;-52
2022/12/06 10:23:16;;;;;;;6.15;3.00;;;;;;;-3.15;42.80;100872.97;4988181;28;20073;-49
2022/12/06 10:25:41;;;;;;;6.03;2.78;;;;;;;-3.35;43.18;100863.69;4986261;28;20039;-51
2022/12/06 10:28:09;;;;;;;5.45;2.53;;;;;;;-3.33;43.85;100851.88;4979253;28;20072;-55
2022/12/06 10:30:49;;;;;;;11.38;3.75;;;;;;;-3.36;43.57;100852.66;4987674;28;20046;-57
2022/12/06 10:33:35;;;;;;;6.78;3.17;;;;;;;-3.25;43.76;100858.16;4987919;28;20058;-53
2022/12/06 10:36:03;;;;;;;11.82;4.57;;;;;;;-3.18;43.64;100863.53;4987363;28;20042;-51
2022/12/06 10:38:40;;;;;;;11.52;3.85;;;;;;;-2.76;43.07;100850.72;4972043;28;20050;-53
2022/12/06 10:41:28;;;;;;;8.30;3.03;;;;;;;-1.30;41.42;100847.34;4988927;28;20122;-49
2022/12/06 10:44:34;;;;;;;7.18;3.40;;;;;;;0.11;39.46;100839.53;4989378;28;20137;-50
2022/12/06 10:47:07;;;;;;;6.45;3.40;;;;;;;0.75;38.66;100845.44;4988232;28;20121;-51
2022/12/06 10:49:42;;;;;;;6.63;3.08;;;;;;;0.88;38.17;100844.03;4988127;28;20108;-52
2022/12/06 10:52:27;;;;;;;9.48;3.20;;;;;;;1.56;37.27;100832.72;4971625;28;20050;-53
2022/12/06 10:55:12;;;;;;;7.45;2.60;;;;;;;1.90;36.05;100831.66;4989461;28;20062;-50
2022/12/06 10:57:51;;;;;;;5.60;2.80;;;;;;;1.93;35.70;100834.31;4987944;28;20057;-53
2022/12/06 11:00:19;;;;;;;7.97;2.80;;;;;;;2.05;35.33;100818.25;4988134;28;20276;-53
2022/12/06 11:02:50;;;;;;;7.05;3.28;;;;;;;2.13;34.71;100830.41;4989560;28;20055;-54
2022/12/06 11:05:28;;;;;;;7.30;2.90;;;;;;;1.84;34.86;100823.00;4988280;28;20042;-56
2022/12/06 11:08:14;;;;;;;5.50;2.90;;;;;;;1.48;34.65;100821.44;4989422;28;20034;-52
2022/12/06 11:10:43;;;;;;;5.32;2.92;;;;;;;0.94;34.72;100822.84;4989218;28;20107;-52
2022/12/06 11:13:21;;;;;;;6.97;2.70;;;;;;;0.38;35.35;100825.75;4971870;28;20181;-49
2022/12/06 11:16:10;;;;;;;6.45;3.00;;;;;;;0.42;35.54;100822.44;4988074;28;20277;-53
2022/12/06 11:18:37;;;;;;;6.60;2.95;;;;;;;0.65;35.44;100822.13;4984648;28;20078;-50
2022/12/06 11:21:24;;;;;;;6.43;2.90;;;;;;;0.90;34.95;100790.28;4975218;28;20125;-50
2022/12/06 11:23:59;;;;;;;8.02;2.33;;;;;;;1.23;34.54;100817.50;4991804;28;20034;-50
2022/12/06 11:26:31;;;;;;;8.05;2.55;;;;;;;1.06;34.44;100821.38;4992977;28;20050;-54
2022/12/06 11:29:05;;;;;;;8.75;2.85;;;;;;;0.82;34.55;100801.25;5006260;28;20038;-50
2022/12/06 11:31:35;;;;;;;7.47;3.22;;;;;;;1.06;34.61;100816.25;4990757;28;20165;-53
2022/12/06 11:34:03;;;;;;;5.65;2.25;;;;;;;1.18;34.46;100805.44;4991146;28;20222;-57
2022/12/06 11:36:30;;;;;;;11.60;3.17;;;;;;;1.15;34.44;100806.22;4991183;28;20514;-53
2022/12/06 11:38:56;;;;;;;4.57;2.70;;;;;;;0.69;34.72;100812.00;4991231;28;20518;-54
2022/12/06 11:41:32;;;;;;;5.30;3.15;;;;;;;0.27;35.03;100803.28;4990970;28;20129;-53
2022/12/06 11:43:58;;;;;;;11.10;2.97;;;;;;;0.79;34.91;100813.09;4991175;28;20069;-50
2022/12/06 11:46:25;;;;;;;5.78;2.30;;;;;;;0.64;34.44;100772.66;4990954;28;20128;-52
2022/12/06 11:48:51;;;;;;;15.65;3.10;;;;;;;0.87;34.79;100808.16;4974870;28;20047;-51
2022/12/06 11:51:20;;;;;;;4.82;2.35;;;;;;;0.60;34.68;100799.00;4990698;28;20092;-54
2022/12/06 11:54:04;;;;;;;9.90;2.53;;;;;;;0.53;34.86;100797.13;4992020;28;20054;-55
2022/12/06 11:56:36;;;;;;;7.43;2.72;;;;;;;0.20;35.08;100797.19;4992401;28;20046;-55
2022/12/06 11:59:27;;;;;;;3.30;1.95;;;;;;;0.02;35.44;100799.25;4990913;28;20466;-51
2022/12/06 12:01:55;;;;;;;9.68;3.00;;;;;;;-0.49;35.94;100763.84;4990344;28;20042;-54
2022/12/06 12:04:30;;;;;;;6.63;3.13;;;;;;;-0.29;36.04;100795.03;4992210;28;20507;-52
2022/12/06 12:07:04;;;;;;;9.57;3.00;;;;;;;-0.55;36.32;100791.78;4992218;28;20074;-55